Time;durP1;ratioP1;P1;durP2;ratioP2;P2;SDS_P1;SDS_P2;PMS_P1;PMS_P2;Temp;Humidity;BMP_temperature;BMP_pressure;BME280_temperature;BME280_humidity;BME280_pressure;Samples;Min_cycle;Max_cycle;Signal;HPM_P1;HPM_P2
2022/11/18 00:01:20;;;;;;;1.40;0.90;;;;;;;9.85;100.00;94927.66;5066772;28;20195;-57
2022/11/18 00:03:47;;;;;;;0.63;0.50;;;;;;;9.92;100.00;94929.41;5059490;28;20281;-57
2022/11/18 00:06:16;;;;;;;1.67;0.70;;;;;;;9.91;100.00;94946.28;5059414;28;20253;-57
2022/11/18 00:08:43;;;;;;;2.37;0.60;;;;;;;9.80;100.00;94952.00;5059687;28;20211;-57
2022/11/18 00:14:17;;;;;;;2.73;0.87;;;;;;;9.84;100.00;94958.56;5057149;28;20257;-57
2022/11/18 00:14:17;;;;;;;0.93;0.67;;;;;;;9.80;100.00;94953.81;5061440;28;20203;-57
2022/11/18 00:16:44;;;;;;;1.30;0.87;;;;;;;9.79;100.00;94952.16;5066235;28;20230;-56
2022/11/18 00:19:11;;;;;;;1.63;1.13;;;;;;;9.80;100.00;94954.63;5063939;28;20239;-56
2022/11/18 00:21:38;;;;;;;0.60;0.60;;;;;;;9.80;100.00;94952.00;5056257;28;20210;-57
2022/11/18 00:24:05;;;;;;;2.00;1.10;;;;;;;9.80;100.00;94954.63;5056252;28;20273;-57
2022/11/18 00:26:35;;;;;;;1.30;0.87;;;;;;;9.83;100.00;94956.09;5056418;28;20242;-57
2022/11/18 00:29:02;;;;;;;1.63;1.00;;;;;;;9.85;100.00;94957.53;5056904;28;20223;-56
2022/11/18 00:31:28;;;;;;;1.63;1.17;;;;;;;9.85;100.00;94968.09;5058781;28;20203;-58
2022/11/18 00:33:56;;;;;;;0.70;0.70;;;;;;;9.88;100.00;94967.72;5062187;28;20207;-57
2022/11/18 00:36:22;;;;;;;0.93;0.90;;;;;;;9.86;100.00;94969.75;5065764;28;20289;-57
2022/11/18 00:38:49;;;;;;;1.97;0.87;;;;;;;9.87;100.00;94974.03;5057362;28;20260;-57
2022/11/18 00:41:16;;;;;;;1.00;0.90;;;;;;;9.87;100.00;94979.31;5064193;28;20209;-57
2022/11/18 00:43:43;;;;;;;0.90;0.90;;;;;;;9.90;100.00;94980.78;5063448;28;20257;-57
2022/11/18 00:46:11;;;;;;;2.07;0.87;;;;;;;9.89;100.00;94987.03;5064297;28;20668;-57
2022/11/18 00:48:38;;;;;;;1.30;0.80;;;;;;;9.91;100.00;94988.53;5076620;28;20301;-57
2022/11/18 00:51:13;;;;;;;1.50;1.23;;;;;;;9.90;100.00;94983.41;5072214;28;20227;-57
2022/11/18 00:53:39;;;;;;;0.90;0.90;;;;;;;9.92;100.00;94995.41;5061653;28;20238;-57
2022/11/18 00:56:07;;;;;;;1.33;0.80;;;;;;;9.84;100.00;94984.97;5063361;28;20264;-57
2022/11/18 00:58:33;;;;;;;0.50;0.50;;;;;;;9.86;100.00;94969.75;5072129;28;20203;-56
2022/11/18 01:01:02;;;;;;;1.27;0.87;;;;;;;9.76;100.00;94985.03;5062602;28;20277;-57
2022/11/18 01:03:29;;;;;;;0.57;0.57;;;;;;;9.74;100.00;94989.63;5062526;28;20203;-57
2022/11/18 01:05:56;;;;;;;0.50;0.50;;;;;;;9.71;100.00;94992.63;5067999;28;20206;-57
2022/11/18 01:08:23;;;;;;;0.93;0.90;;;;;;;9.70;100.00;94991.03;5064929;28;20285;-58
2022/11/18 01:10:51;;;;;;;0.50;0.40;;;;;;;9.70;100.00;95012.13;5066951;28;20245;-57
2022/11/18 01:13:21;;;;;;;1.67;0.60;;;;;;;9.73;100.00;95003.84;5056789;28;20217;-57
2022/11/18 01:15:50;;;;;;;1.13;0.40;;;;;;;9.71;100.00;95013.75;5057278;28;20632;-57
2022/11/18 01:18:19;;;;;;;3.37;2.43;;;;;;;9.71;100.00;95019.03;5056106;28;20301;-55
2022/11/18 01:20:46;;;;;;;2.60;1.60;;;;;;;9.70;100.00;95033.25;5065994;28;20297;-56
2022/11/18 01:23:15;;;;;;;0.93;0.70;;;;;;;9.73;100.00;95024.97;5071186;28;20694;-56
2022/11/18 01:25:43;;;;;;;0.63;0.50;;;;;;;9.71;100.00;95032.22;5055354;28;20290;-56
2022/11/18 01:28:11;;;;;;;0.50;0.50;;;;;;;9.71;100.00;95032.22;5055674;28;20227;-56
2022/11/18 01:30:40;;;;;;;0.90;0.73;;;;;;;9.73;100.00;95014.41;5055497;28;20261;-56
2022/11/18 01:33:07;;;;;;;0.50;0.50;;;;;;;9.66;100.00;95016.13;5054904;28;20269;-56
2022/11/18 01:35:36;;;;;;;1.27;0.60;;;;;;;9.64;100.00;95018.09;5055133;28;20242;-57
2022/11/18 01:38:04;;;;;;;1.23;0.90;;;;;;;9.61;100.00;95021.09;5055427;28;20250;-56
2022/11/18 01:40:31;;;;;;;0.53;0.50;;;;;;;9.55;100.00;95028.91;5054909;28;20593;-55
2022/11/18 01:42:58;;;;;;;0.87;0.50;;;;;;;9.53;100.00;95036.97;5054770;28;20211;-55
2022/11/18 01:45:29;;;;;;;0.30;0.30;;;;;;;9.53;100.00;95034.34;5056772;28;20207;-56
2022/11/18 01:48:00;;;;;;;2.00;0.50;;;;;;;9.45;100.00;95044.97;5072786;28;20274;-55
2022/11/18 01:50:30;;;;;;;0.57;0.30;;;;;;;9.42;100.00;95045.31;5065424;28;20211;-57
2022/11/18 01:53:01;;;;;;;0.50;0.50;;;;;;;9.41;100.00;95054.22;5058587;28;20670;-56
2022/11/18 01:55:31;;;;;;;0.37;0.30;;;;;;;9.37;100.00;95045.00;5058776;28;20242;-57
2022/11/18 01:58:02;;;;;;;0.30;0.20;;;;;;;9.35;100.00;95039.09;5059165;28;20242;-56
2022/11/18 02:00:30;;;;;;;0.27;0.27;;;;;;;9.33;100.00;95033.16;5058606;28;20218;-57
2022/11/18 02:02:58;;;;;;;0.63;0.30;;;;;;;9.32;100.00;95047.34;5058672;28;20305;-56
2022/11/18 02:05:26;;;;;;;15.40;11.93;;;;;;;9.27;100.00;95063.72;5058592;28;20245;-56
2022/11/18 02:07:53;;;;;;;4.60;4.13;;;;;;;9.26;100.00;95061.22;5058470;28;20575;-56
2022/11/18 02:10:23;;;;;;;0.73;0.73;;;;;;;9.27;100.00;95060.25;5064137;28;20294;-56
2022/11/18 02:12:51;;;;;;;0.20;0.20;;;;;;;9.17;100.00;95052.56;5058523;28;20199;-56
2022/11/18 02:15:20;;;;;;;0.20;0.20;;;;;;;9.17;100.00;95054.38;5058044;28;20245;-56
2022/11/18 02:17:56;;;;;;;0.10;0.10;;;;;;;9.14;100.00;95058.16;5058498;28;20315;-57
2022/11/18 02:20:31;;;;;;;1.33;0.30;;;;;;;9.11;100.00;95076.97;5062588;28;20233;-57
2022/11/18 02:23:27;;;;;;;0.87;0.30;;;;;;;9.16;100.00;95076.44;5058109;28;20241;-57
2022/11/18 02:26:10;;;;;;;0.53;0.30;;;;;;;9.15;100.00;95080.06;5066142;28;20277;-58
2022/11/18 02:28:37;;;;;;;0.87;0.10;;;;;;;9.14;100.00;95083.72;5058298;28;20222;-56
2022/11/18 02:31:10;;;;;;;0.20;0.20;;;;;;;9.12;100.00;95083.06;5057754;28;20313;-57
2022/11/18 02:33:41;;;;;;;0.40;0.20;;;;;;;9.10;100.00;95079.78;5058142;28;20211;-57
2022/11/18 02:36:12;;;;;;;0.63;0.13;;;;;;;9.06;100.00;95083.75;5057967;28;20290;-57
2022/11/18 02:38:42;;;;;;;0.20;0.20;;;;;;;9.05;100.00;95084.75;5058010;28;20543;-56
2022/11/18 02:41:13;;;;;;;0.10;0.10;;;;;;;9.02;100.00;95080.66;5063128;28;20237;-56
2022/11/18 02:43:43;;;;;;;0.30;0.27;;;;;;;9.00;100.00;95088.72;5064467;28;20286;-56
2022/11/18 02:46:15;;;;;;;0.20;0.20;;;;;;;9.02;100.00;95079.81;5065127;28;20654;-57
2022/11/18 02:48:45;;;;;;;0.17;0.13;;;;;;;9.01;100.00;95094.81;5077470;28;20240;-56
2022/11/18 02:51:12;;;;;;;0.20;0.20;;;;;;;9.00;100.00;95088.72;5063078;28;20575;-56
2022/11/18 02:53:40;;;;;;;0.93;0.20;;;;;;;9.02;100.00;95091.19;5067961;28;20255;-57
2022/11/18 02:56:08;;;;;;;0.13;0.13;;;;;;;9.05;100.00;95084.75;5057544;28;20313;-56
2022/11/18 02:58:35;;;;;;;0.57;0.33;;;;;;;9.01;100.00;95094.81;5056438;28;20266;-56
2022/11/18 03:01:02;;;;;;;0.27;0.20;;;;;;;9.01;100.00;95086.91;5060304;28;20240;-55
2022/11/18 03:03:31;;;;;;;0.20;0.20;;;;;;;9.03;100.00;95084.94;5057351;28;20238;-57
2022/11/18 03:06:08;;;;;;;0.10;0.10;;;;;;;9.13;100.00;95076.81;5060754;28;20211;-57
2022/11/18 03:08:41;;;;;;;0.73;0.30;;;;;;;9.12;100.00;95081.25;5062281;28;20279;-56
2022/11/18 03:11:13;;;;;;;0.17;0.10;;;;;;;9.09;100.00;95086.03;5064618;28;20714;-56
2022/11/18 03:13:46;;;;;;;1.03;0.10;;;;;;;9.03;100.00;95092.00;5062984;28;20215;-56
2022/11/18 03:16:17;;;;;;;0.10;0.10;;;;;;;9.03;100.00;95113.09;5057028;28;20274;-56
2022/11/18 03:18:52;;;;;;;0.20;0.20;;;;;;;9.07;100.00;95104.66;5057099;28;20215;-56
2022/11/18 03:21:22;;;;;;;0.30;0.20;;;;;;;8.95;100.00;95112.16;5058690;28;20233;-55
2022/11/18 03:23:53;;;;;;;0.37;0.10;;;;;;;8.97;100.00;95112.78;5057262;28;20238;-57
2022/11/18 03:26:22;;;;;;;0.37;0.30;;;;;;;8.93;100.00;95119.38;5063071;28;20218;-57
2022/11/18 03:28:51;;;;;;;0.20;0.20;;;;;;;8.96;100.00;95116.41;5088852;28;20198;-57
2022/11/18 03:31:22;;;;;;;0.30;0.20;;;;;;;8.96;100.00;95124.31;5078936;28;20207;-57
2022/11/18 03:33:56;;;;;;;0.10;0.10;;;;;;;8.93;100.00;95129.94;5060655;28;20281;-57
2022/11/18 03:36:25;;;;;;;0.20;0.20;;;;;;;8.94;100.00;95131.56;5063738;28;20688;-56
2022/11/18 03:38:54;;;;;;;3.00;0.33;;;;;;;8.97;100.00;95133.88;5062597;28;20798;-57
2022/11/18 03:41:22;;;;;;;1.27;0.30;;;;;;;8.95;100.00;95133.22;5063448;28;20210;-57
2022/11/18 03:43:51;;;;;;;0.30;0.30;;;;;;;8.95;100.00;95141.13;5062565;28;20242;-57
2022/11/18 03:46:21;;;;;;;0.10;0.10;;;;;;;8.92;100.00;95138.84;5064857;28;20289;-56
2022/11/18 03:48:52;;;;;;;0.80;0.30;;;;;;;8.96;100.00;95149.88;5058711;28;20270;-56
2022/11/18 03:51:20;;;;;;;0.00;0.00;;;;;;;8.92;100.00;95149.41;5065994;28;20614;-57
2022/11/18 03:53:52;;;;;;;0.10;0.10;;;;;;;8.90;100.00;95153.16;5055981;28;20241;-55
2022/11/18 03:56:21;;;;;;;0.20;0.10;;;;;;;8.90;100.00;95154.00;5056416;28;20207;-57
2022/11/18 03:58:53;;;;;;;0.37;0.10;;;;;;;8.89;100.00;95152.34;5055708;28;20269;-57
2022/11/18 04:01:21;;;;;;;0.50;0.20;;;;;;;8.89;100.00;95170.00;5055758;28;20239;-57
2022/11/18 04:03:48;;;;;;;0.10;0.10;;;;;;;8.89;100.00;95173.44;5055833;28;20246;-56
2022/11/18 04:06:21;;;;;;;0.30;0.30;;;;;;;8.90;100.00;95171.63;5055553;28;20639;-56
2022/11/18 04:08:51;;;;;;;0.17;0.10;;;;;;;8.88;100.00;95169.16;5062791;28;20206;-57
2022/11/18 04:14:07;;;;;;;0.20;0.20;;;;;;;8.87;100.00;95175.41;5055890;28;20199;-57
2022/11/18 04:16:39;;;;;;;0.47;0.37;;;;;;;8.88;100.00;95187.63;5055822;28;20302;-57
2022/11/18 04:19:06;;;;;;;0.20;0.20;;;;;;;8.91;100.00;95183.81;5055920;28;20553;-56
2022/11/18 04:21:34;;;;;;;0.30;0.30;;;;;;;8.91;100.00;95189.09;5060854;28;20250;-57
2022/11/18 04:24:01;;;;;;;0.37;0.37;;;;;;;8.87;100.00;95188.59;5075963;28;20207;-57
2022/11/18 04:26:27;;;;;;;0.93;0.30;;;;;;;8.90;100.00;95192.72;5075618;28;20651;-56
2022/11/18 04:28:54;;;;;;;0.37;0.37;;;;;;;8.95;100.00;95191.22;5075876;28;20297;-56
2022/11/18 04:31:21;;;;;;;0.20;0.20;;;;;;;8.93;100.00;95185.28;5069099;28;20257;-57
2022/11/18 04:33:48;;;;;;;0.57;0.30;;;;;;;8.94;100.00;95184.31;5056064;28;20253;-57
2022/11/18 04:36:14;;;;;;;0.63;0.27;;;;;;;8.96;100.00;95198.13;5055345;28;20655;-56
2022/11/18 04:38:42;;;;;;;0.90;0.23;;;;;;;8.98;100.00;95192.69;5055293;28;20262;-57
2022/11/18 04:41:09;;;;;;;0.30;0.30;;;;;;;8.99;100.00;95189.09;5060334;28;20580;-57
2022/11/18 04:43:36;;;;;;;0.93;0.60;;;;;;;8.96;100.00;95198.13;5063247;28;20297;-56
2022/11/18 04:46:02;;;;;;;0.70;0.20;;;;;;;9.00;100.00;95190.69;5062137;28;20223;-57
2022/11/18 04:48:29;;;;;;;0.10;0.10;;;;;;;9.00;100.00;95201.25;5075381;28;20237;-58
2022/11/18 04:50:57;;;;;;;0.20;0.20;;;;;;;8.97;100.00;95197.16;5055079;28;20632;-57
2022/11/18 04:53:24;;;;;;;0.70;0.70;;;;;;;8.88;100.00;95187.63;5055199;28;20261;-57
2022/11/18 04:55:52;;;;;;;0.53;0.20;;;;;;;8.89;100.00;95191.09;5055382;28;20245;-57
2022/11/18 04:58:19;;;;;;;1.00;0.10;;;;;;;8.84;100.00;95190.75;5055671;28;20270;-56
2022/11/18 05:00:45;;;;;;;0.30;0.30;;;;;;;8.79;100.00;95191.25;5055652;28;20288;-57
2022/11/18 05:03:12;;;;;;;0.10;0.10;;;;;;;8.70;100.00;95197.53;5055684;28;20277;-56
2022/11/18 05:05:38;;;;;;;0.17;0.10;;;;;;;8.62;100.00;95200.16;5054875;28;20278;-57
2022/11/18 05:08:06;;;;;;;0.23;0.23;;;;;;;8.63;100.00;95201.81;5055111;28;20242;-57
2022/11/18 05:10:33;;;;;;;0.10;0.10;;;;;;;8.54;100.00;95202.81;5054803;28;20663;-57
2022/11/18 05:13:01;;;;;;;0.40;0.30;;;;;;;8.50;100.00;95207.56;5054829;28;20283;-57
2022/11/18 05:15:27;;;;;;;0.20;0.20;;;;;;;8.51;100.00;95218.94;5054597;28;20219;-57
2022/11/18 05:17:54;;;;;;;1.67;0.30;;;;;;;8.47;100.00;95207.09;5056284;28;20288;-56
2022/11/18 05:20:21;;;;;;;0.13;0.13;;;;;;;8.49;100.00;95208.59;5066051;28;20268;-58
2022/11/18 05:22:47;;;;;;;0.20;0.10;;;;;;;8.49;100.00;95218.28;5057680;28;20207;-57
2022/11/18 05:25:14;;;;;;;0.30;0.30;;;;;;;8.50;100.00;95222.59;5058979;28;20246;-57
2022/11/18 05:27:41;;;;;;;0.20;0.20;;;;;;;8.49;100.00;95234.09;5059145;28;20230;-56
2022/11/18 05:30:10;;;;;;;0.27;0.27;;;;;;;8.46;100.00;95230.00;5059595;28;20288;-55
2022/11/18 05:32:37;;;;;;;0.30;0.30;;;;;;;8.48;100.00;95235.09;5060494;28;20317;-57
2022/11/18 05:35:04;;;;;;;1.00;0.30;;;;;;;8.49;100.00;95239.38;5079026;28;20694;-57
2022/11/18 05:37:32;;;;;;;0.83;0.30;;;;;;;8.51;100.00;95237.38;5064403;28;20253;-58
2022/11/18 05:39:59;;;;;;;0.60;0.40;;;;;;;8.52;100.00;95240.84;5060953;28;20282;-58
2022/11/18 05:45:11;;;;;;;0.20;0.20;;;;;;;8.53;100.00;95243.31;5059973;28;20210;-57
2022/11/18 05:50:18;;;;;;;0.20;0.20;;;;;;;8.60;100.00;95264.56;5062445;28;20206;-57
2022/11/18 05:52:45;;;;;;;0.40;0.30;;;;;;;8.59;100.00;95287.44;5059747;28;20666;-57
2022/11/18 05:55:14;;;;;;;0.60;0.57;;;;;;;8.69;100.00;95301.28;5061643;28;20257;-57
2022/11/18 05:57:41;;;;;;;0.23;0.20;;;;;;;8.61;100.00;95303.09;5075253;28;20254;-57
2022/11/18 06:00:09;;;;;;;0.50;0.30;;;;;;;8.59;100.00;95321.69;5079904;28;20361;-57
2022/11/18 06:02:37;;;;;;;0.23;0.23;;;;;;;8.59;100.00;95321.69;5080629;28;20255;-57
2022/11/18 06:05:10;;;;;;;0.20;0.13;;;;;;;8.54;100.00;95328.47;5067932;28;20639;-57
2022/11/18 06:07:41;;;;;;;0.27;0.20;;;;;;;8.43;100.00;95326.97;5059158;28;20199;-57
2022/11/18 06:10:10;;;;;;;0.03;0.03;;;;;;;8.40;100.00;95338.63;5060022;28;20219;-56
2022/11/18 06:12:44;;;;;;;0.20;0.20;;;;;;;8.24;100.00;95327.22;5060228;28;20282;-56
2022/11/18 06:15:15;;;;;;;0.30;0.30;;;;;;;8.14;100.00;95337.88;5058871;28;20203;-57
2022/11/18 06:17:46;;;;;;;0.23;0.20;;;;;;;8.07;100.00;95336.88;5058729;28;20203;-56
2022/11/18 06:20:13;;;;;;;0.10;0.10;;;;;;;8.01;100.00;95338.31;5058383;28;20211;-56
2022/11/18 06:22:40;;;;;;;0.30;0.30;;;;;;;8.05;100.00;95346.72;5068679;28;20230;-58
2022/11/18 06:25:07;;;;;;;0.33;0.27;;;;;;;7.96;100.00;95340.63;5066380;28;20278;-57
2022/11/18 06:27:35;;;;;;;0.87;0.20;;;;;;;7.94;100.00;95342.56;5057722;28;20293;-57
2022/11/18 06:30:02;;;;;;;0.70;0.40;;;;;;;7.95;100.00;95346.03;5058684;28;20207;-58
2022/11/18 06:32:28;;;;;;;0.20;0.20;;;;;;;7.90;100.00;95346.50;5061572;28;20746;-56
2022/11/18 06:34:56;;;;;;;2.63;0.40;;;;;;;7.87;100.00;95349.44;5058126;28;20207;-57
2022/11/18 06:37:23;;;;;;;0.10;0.10;;;;;;;7.87;100.00;95349.44;5059080;28;20203;-57
2022/11/18 06:39:50;;;;;;;0.30;0.27;;;;;;;7.88;100.00;95358.16;5060003;28;20301;-57
2022/11/18 06:44:58;;;;;;;0.30;0.30;;;;;;;7.88;100.00;95359.00;5057934;28;20628;-57
2022/11/18 06:47:24;;;;;;;0.47;0.40;;;;;;;7.92;100.00;95362.97;5077352;28;20234;-57
2022/11/18 06:49:51;;;;;;;0.60;0.60;;;;;;;7.93;100.00;95367.25;5067594;28;20277;-58
2022/11/18 06:52:19;;;;;;;0.30;0.30;;;;;;;7.95;100.00;95365.28;5058221;28;20211;-58
2022/11/18 06:54:46;;;;;;;2.67;1.30;;;;;;;8.01;100.00;95372.53;5056901;28;20249;-57
2022/11/18 06:57:12;;;;;;;4.40;3.13;;;;;;;8.04;100.00;95375.84;5060868;28;20255;-57
2022/11/18 06:59:39;;;;;;;4.57;2.27;;;;;;;8.06;100.00;95382.59;5060430;28;20689;-57
2022/11/18 07:02:06;;;;;;;1.23;1.13;;;;;;;8.09;100.00;95391.97;5068616;28;20239;-57
2022/11/18 07:04:33;;;;;;;2.33;1.27;;;;;;;8.12;100.00;95394.28;5063440;28;20603;-57
2022/11/18 07:07:00;;;;;;;0.67;0.67;;;;;;;8.15;100.00;95394.00;5056899;28;20261;-57
2022/11/18 07:09:30;;;;;;;1.40;1.00;;;;;;;8.17;100.00;95392.84;5057423;28;20324;-56
2022/11/18 07:11:57;;;;;;;0.53;0.53;;;;;;;8.20;100.00;95396.97;5057934;28;20563;-57
2022/11/18 07:14:24;;;;;;;1.40;0.83;;;;;;;8.23;100.00;95399.28;5057554;28;20218;-58
2022/11/18 07:16:51;;;;;;;0.40;0.40;;;;;;;8.22;100.00;95410.81;5056868;28;20276;-57
2022/11/18 07:19:17;;;;;;;3.30;3.00;;;;;;;8.24;100.00;95412.31;5059822;28;20567;-56
2022/11/18 07:21:44;;;;;;;1.60;1.50;;;;;;;8.28;100.00;95423.34;5057111;28;20657;-57
2022/11/18 07:24:13;;;;;;;0.80;0.50;;;;;;;8.30;100.00;95421.41;5057626;28;20210;-56
2022/11/18 07:26:41;;;;;;;0.53;0.53;;;;;;;8.34;100.00;95433.25;5056139;28;20229;-57
2022/11/18 07:29:08;;;;;;;1.70;0.60;;;;;;;8.36;100.00;95431.31;5055816;28;20297;-57
2022/11/18 07:31:36;;;;;;;1.67;0.53;;;;;;;8.40;100.00;95436.09;5055865;28;20239;-57
2022/11/18 07:34:03;;;;;;;0.70;0.70;;;;;;;8.40;100.00;95440.53;5056438;28;20199;-57
2022/11/18 07:36:30;;;;;;;1.30;0.70;;;;;;;8.45;100.00;95454.06;5056123;28;20293;-57
2022/11/18 07:38:59;;;;;;;0.60;0.60;;;;;;;8.47;100.00;95452.06;5055810;28;20306;-56
2022/11/18 07:41:26;;;;;;;0.60;0.60;;;;;;;8.46;100.00;95463.63;5059229;28;20231;-58
2022/11/18 07:43:56;;;;;;;1.70;0.50;;;;;;;8.49;100.00;95465.94;5060068;28;20227;-58
2022/11/18 07:46:24;;;;;;;0.60;0.60;;;;;;;8.50;100.00;95470.22;5056019;28;20215;-57
2022/11/18 07:48:52;;;;;;;1.17;0.40;;;;;;;8.52;100.00;95472.69;5055829;28;20241;-58
2022/11/18 07:51:21;;;;;;;2.57;0.70;;;;;;;8.55;100.00;95475.81;5055894;28;20687;-58
2022/11/18 07:53:48;;;;;;;0.77;0.70;;;;;;;8.60;100.00;95478.00;5055783;28;20257;-57
2022/11/18 07:56:15;;;;;;;0.40;0.40;;;;;;;8.59;100.00;95479.78;5058460;28;20271;-58
2022/11/18 07:58:42;;;;;;;0.63;0.40;;;;;;;8.58;100.00;95493.94;5056603;28;20309;-58
2022/11/18 08:01:11;;;;;;;0.30;0.30;;;;;;;8.61;100.00;95496.25;5058413;28;20536;-59
2022/11/18 08:03:38;;;;;;;1.37;0.70;;;;;;;8.65;100.00;95494.97;5063589;28;20211;-58
2022/11/18 08:06:06;;;;;;;0.40;0.40;;;;;;;8.65;100.00;95496.78;5069614;28;20236;-58
2022/11/18 08:08:33;;;;;;;0.50;0.50;;;;;;;8.57;100.00;95500.22;5059461;28;20239;-58
2022/11/18 08:11:02;;;;;;;0.30;0.30;;;;;;;8.62;100.00;95503.19;5065686;28;20226;-60
2022/11/18 08:13:28;;;;;;;0.50;0.23;;;;;;;8.64;100.00;95498.59;5067382;28;20600;-59
2022/11/18 08:15:56;;;;;;;2.20;0.53;;;;;;;8.65;100.00;95494.97;5072486;28;20238;-59
2022/11/18 08:18:24;;;;;;;0.87;0.40;;;;;;;8.73;100.00;95495.00;5074765;28;20637;-59
2022/11/18 08:20:51;;;;;;;2.63;0.30;;;;;;;8.72;100.00;95495.97;5075175;28;20263;-59
2022/11/18 08:23:18;;;;;;;0.40;0.40;;;;;;;8.76;100.00;95493.84;5071711;28;20233;-57
2022/11/18 08:25:45;;;;;;;0.20;0.20;;;;;;;8.78;100.00;95494.53;5072745;28;20238;-59
2022/11/18 08:28:13;;;;;;;1.10;0.60;;;;;;;8.81;100.00;95499.47;5076314;28;20584;-59
2022/11/18 08:30:40;;;;;;;0.83;0.47;;;;;;;8.84;100.00;95494.72;5076482;28;20242;-59
2022/11/18 08:33:07;;;;;;;0.30;0.30;;;;;;;8.83;100.00;95498.31;5075160;28;20248;-59
2022/11/18 08:35:35;;;;;;;0.40;0.20;;;;;;;8.78;100.00;95500.63;5079151;28;20245;-59
2022/11/18 08:38:02;;;;;;;0.30;0.30;;;;;;;8.79;100.00;95496.97;5072896;28;20206;-57
2022/11/18 08:40:29;;;;;;;1.60;0.67;;;;;;;8.76;100.00;95496.47;5071620;28;20222;-58
2022/11/18 08:42:56;;;;;;;0.30;0.20;;;;;;;8.77;100.00;95506.03;5071190;28;20258;-57
2022/11/18 08:45:23;;;;;;;0.83;0.40;;;;;;;8.79;100.00;95506.69;5070464;28;20198;-58
2022/11/18 08:47:50;;;;;;;1.10;0.27;;;;;;;8.81;100.00;95502.94;5069506;28;20238;-58
2022/11/18 08:50:16;;;;;;;0.20;0.20;;;;;;;8.83;100.00;95505.41;5070063;28;20225;-59
2022/11/18 08:52:44;;;;;;;0.30;0.30;;;;;;;8.90;100.00;95499.34;5070343;28;20259;-58
2022/11/18 08:55:11;;;;;;;0.20;0.20;;;;;;;8.87;100.00;95510.19;5070380;28;20254;-60
2022/11/18 08:57:38;;;;;;;0.30;0.30;;;;;;;8.90;100.00;95512.50;5072034;28;20198;-59
2022/11/18 09:00:07;;;;;;;0.83;0.40;;;;;;;8.87;100.00;95515.47;5067734;28;20229;-58
2022/11/18 09:02:33;;;;;;;0.30;0.20;;;;;;;8.89;100.00;95518.75;5072081;28;20199;-58
2022/11/18 09:05:00;;;;;;;2.00;0.20;;;;;;;8.90;100.00;95517.78;5066861;28;20240;-58
2022/11/18 09:07:27;;;;;;;0.60;0.50;;;;;;;8.93;100.00;95524.53;5068473;28;20245;-59
2022/11/18 09:09:55;;;;;;;0.33;0.33;;;;;;;8.89;100.00;95521.41;5069795;28;20203;-58
2022/11/18 09:12:22;;;;;;;1.50;0.50;;;;;;;8.96;100.00;95521.59;5056520;28;20238;-57
2022/11/18 09:14:49;;;;;;;0.30;0.30;;;;;;;8.95;100.00;95523.41;5072368;28;20614;-58
2022/11/18 09:17:15;;;;;;;0.33;0.30;;;;;;;8.94;100.00;95519.13;5076245;28;20237;-59
2022/11/18 09:19:42;;;;;;;0.40;0.40;;;;;;;8.97;100.00;95521.44;5071063;28;20256;-58
2022/11/18 09:22:09;;;;;;;0.20;0.20;;;;;;;8.99;100.00;95521.28;5072381;28;20201;-58
2022/11/18 09:24:37;;;;;;;0.67;0.40;;;;;;;9.09;100.00;95519.31;5070749;28;20716;-59
2022/11/18 09:27:05;;;;;;;0.33;0.30;;;;;;;9.09;100.00;95519.31;5068486;28;20515;-59
2022/11/18 09:29:32;;;;;;;0.30;0.30;;;;;;;9.14;100.00;95521.50;5068939;28;20289;-58
2022/11/18 09:32:00;;;;;;;0.93;0.43;;;;;;;9.24;100.00;95519.53;5074049;28;20230;-58
2022/11/18 09:34:27;;;;;;;0.40;0.40;;;;;;;9.50;100.00;95528.13;5069434;28;20228;-58
2022/11/18 09:36:55;;;;;;;0.30;0.30;;;;;;;9.61;100.00;95522.53;5074768;28;20202;-59
2022/11/18 09:39:22;;;;;;;0.50;0.30;;;;;;;9.57;100.00;95534.41;5070526;28;20234;-58
2022/11/18 09:41:52;;;;;;;1.07;0.40;;;;;;;9.66;100.00;95537.88;5055613;28;20230;-58
2022/11/18 09:44:39;;;;;;;0.20;0.20;;;;;;;9.70;100.00;95549.75;5068516;28;20199;-58
2022/11/18 09:47:17;;;;;;;0.30;0.30;;;;;;;9.68;100.00;95544.63;5069871;28;20224;-59
2022/11/18 09:49:45;;;;;;;0.30;0.30;;;;;;;9.61;100.00;95550.72;5074463;28;20202;-59
2022/11/18 09:52:17;;;;;;;0.20;0.20;;;;;;;9.63;100.00;95544.31;5073925;28;20242;-58
2022/11/18 09:54:43;;;;;;;0.20;0.20;;;;;;;9.62;100.00;95550.56;5058382;28;20253;-59
2022/11/18 09:57:15;;;;;;;0.30;0.10;;;;;;;9.57;100.00;95550.22;5061053;28;20302;-59
2022/11/18 09:59:45;;;;;;;0.70;0.23;;;;;;;9.56;100.00;95553.88;5055249;28;20215;-58
2022/11/18 10:02:30;;;;;;;0.20;0.20;;;;;;;9.58;100.00;95557.16;5055252;28;20266;-58
2022/11/18 10:05:01;;;;;;;0.20;0.20;;;;;;;9.61;100.00;95562.13;5060057;28;20282;-58
2022/11/18 10:07:36;;;;;;;0.27;0.27;;;;;;;9.65;100.00;95565.25;5059662;28;20238;-59
2022/11/18 10:10:10;;;;;;;0.40;0.30;;;;;;;9.66;100.00;95564.28;5058774;28;20514;-59
2022/11/18 10:12:44;;;;;;;2.23;0.50;;;;;;;9.65;100.00;95568.72;5059016;28;20501;-58
2022/11/18 10:15:20;;;;;;;0.30;0.30;;;;;;;9.74;100.00;95566.94;5059382;28;20294;-59
2022/11/18 10:17:54;;;;;;;2.10;0.50;;;;;;;9.72;100.00;95569.72;5058891;28;20207;-58
2022/11/18 10:20:32;;;;;;;2.63;0.70;;;;;;;9.69;100.00;95559.50;5069641;28;20215;-58
2022/11/18 10:23:05;;;;;;;0.10;0.10;;;;;;;9.69;100.00;95558.66;5061928;28;20230;-59
2022/11/18 10:25:32;;;;;;;0.60;0.33;;;;;;;9.71;100.00;95568.06;5066703;28;20230;-59
2022/11/18 10:28:11;;;;;;;0.70;0.37;;;;;;;9.77;100.00;95562.16;5067598;28;20272;-59
2022/11/18 10:30:40;;;;;;;0.30;0.20;;;;;;;9.79;100.00;95565.44;5058551;28;20301;-58
2022/11/18 10:33:24;;;;;;;0.30;0.30;;;;;;;9.79;100.00;95562.78;5058284;28;20266;-58
2022/11/18 10:36:08;;;;;;;1.57;0.40;;;;;;;9.81;100.00;95568.72;5060908;28;20234;-58
2022/11/18 10:38:34;;;;;;;0.53;0.20;;;;;;;9.75;100.00;95564.09;5062605;28;20207;-59
2022/11/18 10:41:05;;;;;;;0.30;0.30;;;;;;;9.79;100.00;95570.72;5074468;28;20264;-58
2022/11/18 10:43:51;;;;;;;0.30;0.30;;;;;;;9.77;100.00;95572.72;5065663;28;20242;-58
2022/11/18 10:46:25;;;;;;;0.40;0.20;;;;;;;9.76;100.00;95589.53;5065468;28;20190;-58
2022/11/18 10:49:15;;;;;;;1.60;0.20;;;;;;;9.82;100.00;95585.41;5058714;28;20199;-59
2022/11/18 10:51:43;;;;;;;0.43;0.23;;;;;;;9.69;100.00;95577.97;5058363;28;20663;-57
2022/11/18 10:54:14;;;;;;;0.20;0.20;;;;;;;9.64;100.00;95587.34;5058897;28;20236;-58
2022/11/18 10:56:49;;;;;;;0.30;0.30;;;;;;;9.53;100.00;95572.66;5068229;28;20203;-59
2022/11/18 10:59:21;;;;;;;0.20;0.20;;;;;;;9.59;100.00;95568.56;5071989;28;20234;-59
2022/11/18 11:02:00;;;;;;;0.20;0.20;;;;;;;9.54;100.00;95570.84;5070657;28;20272;-58
2022/11/18 11:04:27;;;;;;;0.30;0.30;;;;;;;9.52;100.00;95573.66;5067398;28;20210;-58
2022/11/18 11:06:54;;;;;;;0.20;0.20;;;;;;;9.58;100.00;95580.91;5075208;28;20233;-59
2022/11/18 11:09:29;;;;;;;1.20;0.23;;;;;;;9.60;100.00;95578.13;5059027;28;20203;-60
2022/11/18 11:11:58;;;;;;;0.57;0.30;;;;;;;9.69;100.00;95579.78;5060094;28;20206;-59
2022/11/18 11:14:28;;;;;;;0.43;0.30;;;;;;;9.79;100.00;95588.38;5069473;28;20203;-60
2022/11/18 11:17:02;;;;;;;0.40;0.30;;;;;;;9.86;100.00;95587.56;5069041;28;20221;-58
2022/11/18 11:19:35;;;;;;;0.37;0.30;;;;;;;9.81;100.00;95589.03;5064434;28;20246;-58
2022/11/18 11:22:02;;;;;;;1.27;1.23;;;;;;;9.79;100.00;95581.28;5059666;28;20199;-59
2022/11/18 11:24:29;;;;;;;2.80;0.40;;;;;;;9.77;100.00;95585.91;5061489;28;20226;-59
2022/11/18 11:27:07;;;;;;;0.30;0.30;;;;;;;9.69;100.00;95599.09;5067202;28;20670;-59
2022/11/18 11:30:11;;;;;;;0.30;0.30;;;;;;;9.64;100.00;95597.91;5060359;28;20234;-59
2022/11/18 11:33:02;;;;;;;1.30;1.07;;;;;;;9.56;100.00;95598.75;5071308;28;20323;-58
2022/11/18 11:35:30;;;;;;;0.60;0.60;;;;;;;9.48;100.00;95588.16;5056956;28;20250;-58
2022/11/18 11:37:59;;;;;;;0.80;0.40;;;;;;;9.48;100.00;95589.00;5057009;28;20203;-59
2022/11/18 11:40:33;;;;;;;0.20;0.20;;;;;;;9.37;100.00;95580.56;5056177;28;20721;-58
2022/11/18 11:43:18;;;;;;;1.37;0.33;;;;;;;9.32;100.00;95588.13;5056184;28;20207;-59
2022/11/18 11:45:59;;;;;;;0.53;0.53;;;;;;;9.30;100.00;95592.75;5061697;28;20679;-58
2022/11/18 11:48:35;;;;;;;0.30;0.30;;;;;;;9.32;100.00;95593.38;5076148;28;20579;-58
2022/11/18 11:51:06;;;;;;;0.30;0.30;;;;;;;9.32;100.00;95588.94;5067980;28;20223;-58
2022/11/18 11:53:50;;;;;;;0.47;0.40;;;;;;;9.40;100.00;95588.13;5056021;28;20285;-58
2022/11/18 11:56:20;;;;;;;0.63;0.30;;;;;;;9.30;100.00;95595.38;5055994;28;20198;-58